sensor_id;sensor_type;location;lat;lon;timestamp;P1;durP1;ratioP1;P2;durP2;ratioP2
25615;SDS011;13482;48.234;13.006;2023-11-18T00:00:15;3.83;;;2.00;;
25615;SDS011;13482;48.234;13.006;2023-11-18T00:02:44;2.08;;;1.38;;
25615;SDS011;13482;48.234;13.006;2023-11-18T00:05:13;2.50;;;1.70;;
25615;SDS011;13482;48.234;13.006;2023-11-18T00:07:41;2.60;;;1.60;;
25615;SDS011;13482;48.234;13.006;2023-11-18T00:10:10;2.47;;;1.77;;
25615;SDS011;13482;48.234;13.006;2023-11-18T00:12:38;2.63;;;1.77;;
25615;SDS011;13482;48.234;13.006;2023-11-18T00:15:09;3.17;;;1.80;;
25615;SDS011;13482;48.234;13.006;2023-11-18T00:17:39;2.50;;;1.80;;
25615;SDS011;13482;48.234;13.006;2023-11-18T00:20:07;2.33;;;1.52;;
25615;SDS011;13482;48.234;13.006;2023-11-18T00:22:36;2.90;;;1.90;;
25615;SDS011;13482;48.234;13.006;2023-11-18T00:25:04;3.00;;;2.20;;
25615;SDS011;13482;48.234;13.006;2023-11-18T00:27:34;2.70;;;1.83;;
25615;SDS011;13482;48.234;13.006;2023-11-18T00:30:03;3.00;;;1.92;;
25615;SDS011;13482;48.234;13.006;2023-11-18T00:35:03;5.47;;;3.28;;
25615;SDS011;13482;48.234;13.006;2023-11-18T00:37:33;4.60;;;3.20;;
25615;SDS011;13482;48.234;13.006;2023-11-18T00:40:01;4.43;;;3.00;;
25615;SDS011;13482;48.234;13.006;2023-11-18T00:42:29;3.80;;;2.95;;
25615;SDS011;13482;48.234;13.006;2023-11-18T00:44:57;4.40;;;3.08;;
25615;SDS011;13482;48.234;13.006;2023-11-18T00:47:24;4.00;;;3.05;;
25615;SDS011;13482;48.234;13.006;2023-11-18T00:49:52;3.78;;;2.75;;
25615;SDS011;13482;48.234;13.006;2023-11-18T00:52:20;3.45;;;2.55;;
25615;SDS011;13482;48.234;13.006;2023-11-18T00:54:48;3.22;;;2.28;;
25615;SDS011;13482;48.234;13.006;2023-11-18T00:57:15;3.50;;;2.35;;
25615;SDS011;13482;48.234;13.006;2023-11-18T00:59:43;3.30;;;2.13;;
25615;SDS011;13482;48.234;13.006;2023-11-18T01:02:11;2.88;;;2.00;;
25615;SDS011;13482;48.234;13.006;2023-11-18T01:04:40;3.60;;;2.30;;
25615;SDS011;13482;48.234;13.006;2023-11-18T01:07:07;3.65;;;2.25;;
25615;SDS011;13482;48.234;13.006;2023-11-18T01:09:36;3.38;;;2.50;;
25615;SDS011;13482;48.234;13.006;2023-11-18T01:12:05;3.20;;;2.33;;
25615;SDS011;13482;48.234;13.006;2023-11-18T01:14:36;4.35;;;2.88;;
25615;SDS011;13482;48.234;13.006;2023-11-18T01:17:06;4.68;;;3.33;;
25615;SDS011;13482;48.234;13.006;2023-11-18T01:19:35;4.28;;;3.10;;
25615;SDS011;13482;48.234;13.006;2023-11-18T01:22:03;3.95;;;3.00;;
25615;SDS011;13482;48.234;13.006;2023-11-18T01:24:33;4.05;;;3.05;;
25615;SDS011;13482;48.234;13.006;2023-11-18T01:27:02;3.35;;;2.80;;
25615;SDS011;13482;48.234;13.006;2023-11-18T01:29:29;3.60;;;2.58;;
25615;SDS011;13482;48.234;13.006;2023-11-18T01:31:57;3.35;;;2.20;;
25615;SDS011;13482;48.234;13.006;2023-11-18T01:34:26;3.13;;;2.08;;
25615;SDS011;13482;48.234;13.006;2023-11-18T01:36:55;2.90;;;1.77;;
25615;SDS011;13482;48.234;13.006;2023-11-18T01:39:23;2.72;;;1.67;;
25615;SDS011;13482;48.234;13.006;2023-11-18T01:41:53;2.38;;;1.55;;
25615;SDS011;13482;48.234;13.006;2023-11-18T01:44:22;2.13;;;1.48;;
25615;SDS011;13482;48.234;13.006;2023-11-18T01:46:51;3.03;;;1.80;;
25615;SDS011;13482;48.234;13.006;2023-11-18T01:49:20;3.42;;;1.90;;
25615;SDS011;13482;48.234;13.006;2023-11-18T01:51:50;2.38;;;1.30;;
25615;SDS011;13482;48.234;13.006;2023-11-18T01:54:18;2.20;;;1.42;;
25615;SDS011;13482;48.234;13.006;2023-11-18T01:56:47;2.17;;;1.30;;
25615;SDS011;13482;48.234;13.006;2023-11-18T01:59:15;2.10;;;1.38;;
25615;SDS011;13482;48.234;13.006;2023-11-18T02:01:47;2.05;;;1.40;;
25615;SDS011;13482;48.234;13.006;2023-11-18T02:04:20;1.98;;;1.17;;
25615;SDS011;13482;48.234;13.006;2023-11-18T02:06:49;2.80;;;1.40;;
25615;SDS011;13482;48.234;13.006;2023-11-18T02:09:17;2.20;;;1.50;;
25615;SDS011;13482;48.234;13.006;2023-11-18T02:14:38;1.80;;;0.88;;
25615;SDS011;13482;48.234;13.006;2023-11-18T02:17:07;1.55;;;1.05;;
25615;SDS011;13482;48.234;13.006;2023-11-18T02:19:40;1.40;;;1.10;;
25615;SDS011;13482;48.234;13.006;2023-11-18T02:22:09;2.00;;;1.40;;
25615;SDS011;13482;48.234;13.006;2023-11-18T02:24:40;2.05;;;1.30;;
25615;SDS011;13482;48.234;13.006;2023-11-18T02:27:08;2.22;;;1.42;;
25615;SDS011;13482;48.234;13.006;2023-11-18T02:29:39;3.22;;;1.40;;
25615;SDS011;13482;48.234;13.006;2023-11-18T02:32:28;1.70;;;1.27;;
25615;SDS011;13482;48.234;13.006;2023-11-18T02:35:05;2.17;;;1.20;;
25615;SDS011;13482;48.234;13.006;2023-11-18T02:37:57;1.52;;;1.05;;
25615;SDS011;13482;48.234;13.006;2023-11-18T02:40:28;2.70;;;1.38;;
25615;SDS011;13482;48.234;13.006;2023-11-18T02:43:02;1.67;;;1.10;;
25615;SDS011;13482;48.234;13.006;2023-11-18T02:45:32;2.67;;;1.17;;
25615;SDS011;13482;48.234;13.006;2023-11-18T02:48:05;2.92;;;1.20;;
25615;SDS011;13482;48.234;13.006;2023-11-18T02:50:34;3.38;;;1.30;;
25615;SDS011;13482;48.234;13.006;2023-11-18T02:53:05;2.40;;;1.27;;
25615;SDS011;13482;48.234;13.006;2023-11-18T02:55:32;2.53;;;1.20;;
25615;SDS011;13482;48.234;13.006;2023-11-18T02:58:00;3.35;;;1.60;;
25615;SDS011;13482;48.234;13.006;2023-11-18T03:00:33;2.25;;;1.20;;
25615;SDS011;13482;48.234;13.006;2023-11-18T03:03:01;1.85;;;1.38;;
25615;SDS011;13482;48.234;13.006;2023-11-18T03:05:30;2.00;;;1.30;;
25615;SDS011;13482;48.234;13.006;2023-11-18T03:07:57;1.95;;;1.17;;
25615;SDS011;13482;48.234;13.006;2023-11-18T03:10:25;2.20;;;1.27;;
25615;SDS011;13482;48.234;13.006;2023-11-18T03:12:53;1.50;;;1.10;;
25615;SDS011;13482;48.234;13.006;2023-11-18T03:15:21;1.70;;;1.23;;
25615;SDS011;13482;48.234;13.006;2023-11-18T03:17:50;2.08;;;1.10;;
25615;SDS011;13482;48.234;13.006;2023-11-18T03:20:19;1.70;;;1.17;;
25615;SDS011;13482;48.234;13.006;2023-11-18T03:22:50;1.77;;;1.02;;
25615;SDS011;13482;48.234;13.006;2023-11-18T03:25:19;1.88;;;1.30;;
25615;SDS011;13482;48.234;13.006;2023-11-18T03:27:49;1.77;;;1.05;;
25615;SDS011;13482;48.234;13.006;2023-11-18T03:30:16;1.67;;;1.10;;
25615;SDS011;13482;48.234;13.006;2023-11-18T03:32:44;1.70;;;0.90;;
25615;SDS011;13482;48.234;13.006;2023-11-18T03:35:12;1.75;;;1.20;;
25615;SDS011;13482;48.234;13.006;2023-11-18T03:37:41;1.42;;;1.00;;
25615;SDS011;13482;48.234;13.006;2023-11-18T03:40:11;1.50;;;0.98;;
25615;SDS011;13482;48.234;13.006;2023-11-18T03:42:41;1.50;;;1.10;;
25615;SDS011;13482;48.234;13.006;2023-11-18T03:45:09;1.65;;;1.00;;
25615;SDS011;13482;48.234;13.006;2023-11-18T03:47:37;1.98;;;1.30;;
25615;SDS011;13482;48.234;13.006;2023-11-18T03:50:05;1.88;;;1.20;;
25615;SDS011;13482;48.234;13.006;2023-11-18T03:52:37;1.90;;;1.20;;
25615;SDS011;13482;48.234;13.006;2023-11-18T03:55:05;2.33;;;1.58;;
25615;SDS011;13482;48.234;13.006;2023-11-18T03:57:33;2.33;;;1.45;;
25615;SDS011;13482;48.234;13.006;2023-11-18T04:00:02;2.45;;;1.42;;
25615;SDS011;13482;48.234;13.006;2023-11-18T04:02:30;2.45;;;1.50;;
25615;SDS011;13482;48.234;13.006;2023-11-18T04:04:58;1.88;;;1.30;;
25615;SDS011;13482;48.234;13.006;2023-11-18T04:07:26;1.75;;;1.35;;
25615;SDS011;13482;48.234;13.006;2023-11-18T04:09:55;2.17;;;1.63;;
25615;SDS011;13482;48.234;13.006;2023-11-18T04:12:23;2.22;;;1.40;;
25615;SDS011;13482;48.234;13.006;2023-11-18T04:14:50;2.33;;;1.50;;
25615;SDS011;13482;48.234;13.006;2023-11-18T04:17:17;2.00;;;1.30;;
25615;SDS011;13482;48.234;13.006;2023-11-18T04:19:45;2.00;;;1.30;;
25615;SDS011;13482;48.234;13.006;2023-11-18T04:22:13;1.90;;;1.35;;
25615;SDS011;13482;48.234;13.006;2023-11-18T04:24:41;2.65;;;1.55;;
25615;SDS011;13482;48.234;13.006;2023-11-18T04:27:08;2.00;;;1.33;;
25615;SDS011;13482;48.234;13.006;2023-11-18T04:29:37;2.00;;;1.40;;
25615;SDS011;13482;48.234;13.006;2023-11-18T04:32:04;2.22;;;1.58;;
25615;SDS011;13482;48.234;13.006;2023-11-18T04:34:36;2.05;;;1.38;;
25615;SDS011;13482;48.234;13.006;2023-11-18T04:37:04;2.20;;;1.40;;
25615;SDS011;13482;48.234;13.006;2023-11-18T04:39:32;1.70;;;1.30;;
25615;SDS011;13482;48.234;13.006;2023-11-18T04:42:00;2.58;;;1.35;;
25615;SDS011;13482;48.234;13.006;2023-11-18T04:44:28;2.70;;;1.50;;
25615;SDS011;13482;48.234;13.006;2023-11-18T04:46:58;2.47;;;1.63;;
25615;SDS011;13482;48.234;13.006;2023-11-18T04:49:26;2.10;;;1.45;;
25615;SDS011;13482;48.234;13.006;2023-11-18T04:51:54;2.30;;;1.67;;
25615;SDS011;13482;48.234;13.006;2023-11-18T04:54:21;2.50;;;1.60;;
25615;SDS011;13482;48.234;13.006;2023-11-18T04:56:49;2.65;;;1.70;;
25615;SDS011;13482;48.234;13.006;2023-11-18T04:59:16;2.95;;;1.48;;
25615;SDS011;13482;48.234;13.006;2023-11-18T05:01:44;2.28;;;1.75;;
25615;SDS011;13482;48.234;13.006;2023-11-18T05:04:12;2.42;;;1.42;;
25615;SDS011;13482;48.234;13.006;2023-11-18T05:06:40;2.08;;;1.50;;
25615;SDS011;13482;48.234;13.006;2023-11-18T05:09:07;2.33;;;1.60;;
25615;SDS011;13482;48.234;13.006;2023-11-18T05:11:34;1.95;;;1.60;;
25615;SDS011;13482;48.234;13.006;2023-11-18T05:14:02;2.47;;;1.80;;
25615;SDS011;13482;48.234;13.006;2023-11-18T05:16:30;2.40;;;1.80;;
25615;SDS011;13482;48.234;13.006;2023-11-18T05:18:58;1.88;;;1.42;;
25615;SDS011;13482;48.234;13.006;2023-11-18T05:21:25;2.10;;;1.38;;
25615;SDS011;13482;48.234;13.006;2023-11-18T05:23:53;2.35;;;1.50;;
25615;SDS011;13482;48.234;13.006;2023-11-18T05:26:20;2.63;;;1.60;;
25615;SDS011;13482;48.234;13.006;2023-11-18T05:28:48;1.83;;;1.45;;
25615;SDS011;13482;48.234;13.006;2023-11-18T05:31:16;2.20;;;1.50;;
25615;SDS011;13482;48.234;13.006;2023-11-18T05:33:44;2.38;;;1.73;;
25615;SDS011;13482;48.234;13.006;2023-11-18T05:36:18;2.30;;;1.60;;
25615;SDS011;13482;48.234;13.006;2023-11-18T05:38:54;2.40;;;1.63;;
25615;SDS011;13482;48.234;13.006;2023-11-18T05:41:21;2.38;;;1.67;;
25615;SDS011;13482;48.234;13.006;2023-11-18T05:43:55;1.67;;;1.17;;
25615;SDS011;13482;48.234;13.006;2023-11-18T05:46:25;1.92;;;1.15;;
25615;SDS011;13482;48.234;13.006;2023-11-18T05:48:56;2.13;;;1.20;;
25615;SDS011;13482;48.234;13.006;2023-11-18T05:51:29;1.67;;;1.10;;
25615;SDS011;13482;48.234;13.006;2023-11-18T05:53:56;1.55;;;1.08;;
25615;SDS011;13482;48.234;13.006;2023-11-18T05:56:24;2.15;;;1.10;;
25615;SDS011;13482;48.234;13.006;2023-11-18T05:58:52;1.88;;;1.27;;
25615;SDS011;13482;48.234;13.006;2023-11-18T06:01:21;1.60;;;1.00;;
25615;SDS011;13482;48.234;13.006;2023-11-18T06:03:49;1.60;;;1.05;;
25615;SDS011;13482;48.234;13.006;2023-11-18T06:06:18;1.42;;;0.82;;
25615;SDS011;13482;48.234;13.006;2023-11-18T06:08:50;1.98;;;0.90;;
25615;SDS011;13482;48.234;13.006;2023-11-18T06:11:18;1.15;;;0.80;;
25615;SDS011;13482;48.234;13.006;2023-11-18T06:13:47;1.35;;;0.80;;
25615;SDS011;13482;48.234;13.006;2023-11-18T06:18:52;2.13;;;1.00;;
25615;SDS011;13482;48.234;13.006;2023-11-18T06:21:23;1.50;;;0.90;;
25615;SDS011;13482;48.234;13.006;2023-11-18T06:23:57;1.40;;;0.80;;
25615;SDS011;13482;48.234;13.006;2023-11-18T06:26:27;2.08;;;1.10;;
25615;SDS011;13482;48.234;13.006;2023-11-18T06:28:55;1.92;;;1.15;;
25615;SDS011;13482;48.234;13.006;2023-11-18T06:31:23;1.98;;;1.00;;
25615;SDS011;13482;48.234;13.006;2023-11-18T06:33:51;1.42;;;0.80;;
25615;SDS011;13482;48.234;13.006;2023-11-18T06:36:30;1.15;;;0.77;;
25615;SDS011;13482;48.234;13.006;2023-11-18T06:39:09;1.58;;;0.73;;
25615;SDS011;13482;48.234;13.006;2023-11-18T06:41:50;1.20;;;0.70;;
25615;SDS011;13482;48.234;13.006;2023-11-18T06:44:33;1.02;;;0.70;;
25615;SDS011;13482;48.234;13.006;2023-11-18T06:47:11;1.23;;;0.75;;
25615;SDS011;13482;48.234;13.006;2023-11-18T06:49:42;0.90;;;0.68;;
25615;SDS011;13482;48.234;13.006;2023-11-18T06:52:10;1.70;;;1.00;;
25615;SDS011;13482;48.234;13.006;2023-11-18T06:54:42;1.73;;;1.10;;
25615;SDS011;13482;48.234;13.006;2023-11-18T06:57:10;1.73;;;1.02;;
25615;SDS011;13482;48.234;13.006;2023-11-18T06:59:38;1.27;;;0.98;;
25615;SDS011;13482;48.234;13.006;2023-11-18T07:02:05;2.08;;;0.95;;
25615;SDS011;13482;48.234;13.006;2023-11-18T07:04:33;1.42;;;0.70;;
25615;SDS011;13482;48.234;13.006;2023-11-18T07:07:01;1.00;;;0.70;;
25615;SDS011;13482;48.234;13.006;2023-11-18T07:09:29;1.50;;;0.77;;
25615;SDS011;13482;48.234;13.006;2023-11-18T07:12:03;2.95;;;0.80;;
25615;SDS011;13482;48.234;13.006;2023-11-18T07:14:31;1.70;;;0.80;;
25615;SDS011;13482;48.234;13.006;2023-11-18T07:16:58;1.30;;;0.80;;
25615;SDS011;13482;48.234;13.006;2023-11-18T07:19:26;1.63;;;0.82;;
25615;SDS011;13482;48.234;13.006;2023-11-18T07:21:55;1.50;;;0.90;;
25615;SDS011;13482;48.234;13.006;2023-11-18T07:24:22;1.35;;;0.73;;
25615;SDS011;13482;48.234;13.006;2023-11-18T07:26:50;1.85;;;1.05;;
25615;SDS011;13482;48.234;13.006;2023-11-18T07:29:18;1.60;;;0.93;;
25615;SDS011;13482;48.234;13.006;2023-11-18T07:31:45;1.23;;;0.88;;
25615;SDS011;13482;48.234;13.006;2023-11-18T07:34:13;1.38;;;0.90;;
25615;SDS011;13482;48.234;13.006;2023-11-18T07:36:41;1.40;;;0.80;;
25615;SDS011;13482;48.234;13.006;2023-11-18T07:39:13;1.50;;;0.80;;
25615;SDS011;13482;48.234;13.006;2023-11-18T07:41:51;0.90;;;0.60;;
25615;SDS011;13482;48.234;13.006;2023-11-18T07:44:19;1.27;;;0.70;;
25615;SDS011;13482;48.234;13.006;2023-11-18T07:46:48;1.17;;;0.73;;
25615;SDS011;13482;48.234;13.006;2023-11-18T07:49:16;1.17;;;0.70;;
25615;SDS011;13482;48.234;13.006;2023-11-18T07:51:43;1.20;;;0.70;;
25615;SDS011;13482;48.234;13.006;2023-11-18T07:54:11;1.80;;;1.10;;
25615;SDS011;13482;48.234;13.006;2023-11-18T07:56:40;1.27;;;0.82;;
25615;SDS011;13482;48.234;13.006;2023-11-18T07:59:09;1.52;;;0.93;;
25615;SDS011;13482;48.234;13.006;2023-11-18T08:01:36;1.48;;;1.00;;
25615;SDS011;13482;48.234;13.006;2023-11-18T08:04:12;1.40;;;0.80;;
25615;SDS011;13482;48.234;13.006;2023-11-18T08:06:44;1.40;;;0.90;;
25615;SDS011;13482;48.234;13.006;2023-11-18T08:09:11;1.25;;;0.90;;
25615;SDS011;13482;48.234;13.006;2023-11-18T08:11:40;1.50;;;0.90;;
25615;SDS011;13482;48.234;13.006;2023-11-18T08:14:08;1.70;;;1.10;;
25615;SDS011;13482;48.234;13.006;2023-11-18T08:16:36;2.08;;;0.93;;
25615;SDS011;13482;48.234;13.006;2023-11-18T08:19:04;2.20;;;0.70;;
25615;SDS011;13482;48.234;13.006;2023-11-18T08:21:35;1.50;;;0.85;;
25615;SDS011;13482;48.234;13.006;2023-11-18T08:24:07;1.48;;;1.00;;
25615;SDS011;13482;48.234;13.006;2023-11-18T08:26:35;1.30;;;0.80;;
25615;SDS011;13482;48.234;13.006;2023-11-18T08:29:02;1.15;;;0.75;;
25615;SDS011;13482;48.234;13.006;2023-11-18T08:31:30;1.15;;;0.70;;
25615;SDS011;13482;48.234;13.006;2023-11-18T08:33:59;1.63;;;1.08;;
25615;SDS011;13482;48.234;13.006;2023-11-18T08:36:27;1.73;;;1.08;;
25615;SDS011;13482;48.234;13.006;2023-11-18T08:38:54;1.10;;;0.73;;
25615;SDS011;13482;48.234;13.006;2023-11-18T08:41:23;1.50;;;0.80;;
25615;SDS011;13482;48.234;13.006;2023-11-18T08:43:51;1.65;;;1.00;;
25615;SDS011;13482;48.234;13.006;2023-11-18T08:46:20;1.10;;;0.80;;
25615;SDS011;13482;48.234;13.006;2023-11-18T08:48:48;1.50;;;0.90;;
25615;SDS011;13482;48.234;13.006;2023-11-18T08:51:15;1.30;;;0.85;;
25615;SDS011;13482;48.234;13.006;2023-11-18T08:53:43;1.23;;;0.80;;
25615;SDS011;13482;48.234;13.006;2023-11-18T08:56:12;1.27;;;0.75;;
25615;SDS011;13482;48.234;13.006;2023-11-18T08:58:42;1.70;;;1.10;;
25615;SDS011;13482;48.234;13.006;2023-11-18T09:01:11;1.35;;;0.90;;
25615;SDS011;13482;48.234;13.006;2023-11-18T09:03:42;2.45;;;0.90;;
25615;SDS011;13482;48.234;13.006;2023-11-18T09:06:15;1.90;;;1.00;;
25615;SDS011;13482;48.234;13.006;2023-11-18T09:08:53;1.40;;;0.90;;
25615;SDS011;13482;48.234;13.006;2023-11-18T09:11:25;1.08;;;0.77;;
25615;SDS011;13482;48.234;13.006;2023-11-18T09:13:59;6.28;;;4.68;;
25615;SDS011;13482;48.234;13.006;2023-11-18T09:16:31;8.48;;;4.88;;
25615;SDS011;13482;48.234;13.006;2023-11-18T09:19:02;5.13;;;3.50;;
25615;SDS011;13482;48.234;13.006;2023-11-18T09:21:29;3.78;;;2.30;;
25615;SDS011;13482;48.234;13.006;2023-11-18T09:24:02;3.50;;;2.28;;
25615;SDS011;13482;48.234;13.006;2023-11-18T09:26:32;2.95;;;1.70;;
25615;SDS011;13482;48.234;13.006;2023-11-18T09:28:59;2.75;;;1.70;;
25615;SDS011;13482;48.234;13.006;2023-11-18T09:31:29;2.17;;;1.48;;
25615;SDS011;13482;48.234;13.006;2023-11-18T09:33:58;2.45;;;1.52;;
25615;SDS011;13482;48.234;13.006;2023-11-18T09:36:27;2.65;;;1.60;;
25615;SDS011;13482;48.234;13.006;2023-11-18T09:38:55;1.98;;;1.30;;
25615;SDS011;13482;48.234;13.006;2023-11-18T09:41:23;2.25;;;1.27;;
25615;SDS011;13482;48.234;13.006;2023-11-18T09:43:54;1.98;;;1.10;;
25615;SDS011;13482;48.234;13.006;2023-11-18T09:46:25;1.70;;;1.15;;
25615;SDS011;13482;48.234;13.006;2023-11-18T09:54:36;1.17;;;0.70;;
25615;SDS011;13482;48.234;13.006;2023-11-18T09:57:26;1.38;;;0.90;;
25615;SDS011;13482;48.234;13.006;2023-11-18T10:00:08;1.60;;;0.90;;
25615;SDS011;13482;48.234;13.006;2023-11-18T10:02:48;1.38;;;0.90;;
25615;SDS011;13482;48.234;13.006;2023-11-18T10:05:22;1.60;;;1.00;;
25615;SDS011;13482;48.234;13.006;2023-11-18T10:07:54;1.90;;;1.10;;
25615;SDS011;13482;48.234;13.006;2023-11-18T10:10:23;1.85;;;1.20;;
25615;SDS011;13482;48.234;13.006;2023-11-18T10:12:53;2.17;;;1.50;;
25615;SDS011;13482;48.234;13.006;2023-11-18T10:15:25;1.70;;;1.30;;
25615;SDS011;13482;48.234;13.006;2023-11-18T10:17:54;2.03;;;1.40;;
25615;SDS011;13482;48.234;13.006;2023-11-18T10:20:46;1.88;;;1.50;;
25615;SDS011;13482;48.234;13.006;2023-11-18T10:23:19;1.67;;;1.30;;
25615;SDS011;13482;48.234;13.006;2023-11-18T10:25:50;2.30;;;1.10;;
25615;SDS011;13482;48.234;13.006;2023-11-18T10:28:26;2.10;;;1.40;;
25615;SDS011;13482;48.234;13.006;2023-11-18T10:31:01;1.90;;;1.20;;
25615;SDS011;13482;48.234;13.006;2023-11-18T10:33:32;2.50;;;1.47;;
25615;SDS011;13482;48.234;13.006;2023-11-18T10:36:03;2.20;;;1.30;;
25615;SDS011;13482;48.234;13.006;2023-11-18T10:38:51;2.30;;;1.60;;
25615;SDS011;13482;48.234;13.006;2023-11-18T10:41:23;2.05;;;1.48;;
25615;SDS011;13482;48.234;13.006;2023-11-18T10:44:04;1.90;;;1.40;;
25615;SDS011;13482;48.234;13.006;2023-11-18T10:46:51;2.10;;;1.60;;
25615;SDS011;13482;48.234;13.006;2023-11-18T10:49:20;2.20;;;1.80;;
25615;SDS011;13482;48.234;13.006;2023-11-18T10:51:50;2.35;;;1.88;;
25615;SDS011;13482;48.234;13.006;2023-11-18T10:54:18;2.70;;;1.73;;
25615;SDS011;13482;48.234;13.006;2023-11-18T10:56:46;2.90;;;2.20;;
25615;SDS011;13482;48.234;13.006;2023-11-18T10:59:23;3.10;;;2.33;;
25615;SDS011;13482;48.234;13.006;2023-11-18T11:01:52;3.13;;;2.25;;
25615;SDS011;13482;48.234;13.006;2023-11-18T11:04:20;3.17;;;2.15;;
25615;SDS011;13482;48.234;13.006;2023-11-18T11:06:49;3.72;;;2.30;;
25615;SDS011;13482;48.234;13.006;2023-11-18T11:09:21;3.05;;;2.38;;
25615;SDS011;13482;48.234;13.006;2023-11-18T11:12:04;3.25;;;2.45;;
25615;SDS011;13482;48.234;13.006;2023-11-18T11:17:51;2.83;;;2.28;;
25615;SDS011;13482;48.234;13.006;2023-11-18T11:20:29;3.63;;;2.47;;
25615;SDS011;13482;48.234;13.006;2023-11-18T11:29:56;3.17;;;2.30;;
25615;SDS011;13482;48.234;13.006;2023-11-18T11:32:49;3.75;;;2.58;;
25615;SDS011;13482;48.234;13.006;2023-11-18T11:35:23;3.45;;;2.40;;
25615;SDS011;13482;48.234;13.006;2023-11-18T11:38:05;3.35;;;2.60;;
25615;SDS011;13482;48.234;13.006;2023-11-18T11:40:36;2.78;;;2.30;;
25615;SDS011;13482;48.234;13.006;2023-11-18T11:43:05;3.33;;;2.63;;
25615;SDS011;13482;48.234;13.006;2023-11-18T11:45:38;3.28;;;2.42;;
25615;SDS011;13482;48.234;13.006;2023-11-18T11:48:06;4.82;;;2.72;;
25615;SDS011;13482;48.234;13.006;2023-11-18T11:53:48;3.22;;;2.67;;
25615;SDS011;13482;48.234;13.006;2023-11-18T11:56:42;3.10;;;2.67;;
25615;SDS011;13482;48.234;13.006;2023-11-18T11:59:15;2.58;;;2.17;;
25615;SDS011;13482;48.234;13.006;2023-11-18T12:01:43;3.17;;;2.33;;
25615;SDS011;13482;48.234;13.006;2023-11-18T12:04:19;3.20;;;2.50;;
25615;SDS011;13482;48.234;13.006;2023-11-18T12:06:55;2.92;;;2.30;;
25615;SDS011;13482;48.234;13.006;2023-11-18T12:09:38;2.92;;;2.20;;
25615;SDS011;13482;48.234;13.006;2023-11-18T12:12:17;3.00;;;2.40;;
25615;SDS011;13482;48.234;13.006;2023-11-18T12:14:50;2.95;;;2.20;;
25615;SDS011;13482;48.234;13.006;2023-11-18T12:17:19;2.75;;;2.10;;
25615;SDS011;13482;48.234;13.006;2023-11-18T12:19:51;3.10;;;2.50;;
25615;SDS011;13482;48.234;13.006;2023-11-18T12:22:26;2.60;;;2.03;;
25615;SDS011;13482;48.234;13.006;2023-11-18T12:39:01;2.30;;;1.67;;
25615;SDS011;13482;48.234;13.006;2023-11-18T12:47:05;4.22;;;2.92;;
25615;SDS011;13482;48.234;13.006;2023-11-18T12:49:41;2.70;;;2.20;;
25615;SDS011;13482;48.234;13.006;2023-11-18T12:52:09;3.13;;;2.20;;
25615;SDS011;13482;48.234;13.006;2023-11-18T12:54:41;2.83;;;2.17;;
25615;SDS011;13482;48.234;13.006;2023-11-18T12:57:10;2.60;;;1.95;;
25615;SDS011;13482;48.234;13.006;2023-11-18T12:59:41;2.90;;;2.10;;
25615;SDS011;13482;48.234;13.006;2023-11-18T13:02:10;2.80;;;2.28;;
25615;SDS011;13482;48.234;13.006;2023-11-18T13:04:45;2.75;;;2.05;;
25615;SDS011;13482;48.234;13.006;2023-11-18T13:07:16;2.40;;;1.90;;
25615;SDS011;13482;48.234;13.006;2023-11-18T13:09:45;2.50;;;1.88;;
25615;SDS011;13482;48.234;13.006;2023-11-18T13:12:14;2.00;;;1.60;;
25615;SDS011;13482;48.234;13.006;2023-11-18T13:14:42;2.65;;;2.08;;
25615;SDS011;13482;48.234;13.006;2023-11-18T13:17:13;2.38;;;1.88;;
25615;SDS011;13482;48.234;13.006;2023-11-18T13:19:43;2.85;;;1.48;;
25615;SDS011;13482;48.234;13.006;2023-11-18T13:22:12;2.63;;;1.77;;
25615;SDS011;13482;48.234;13.006;2023-11-18T13:24:45;1.95;;;1.45;;
25615;SDS011;13482;48.234;13.006;2023-11-18T13:27:14;2.33;;;1.60;;
25615;SDS011;13482;48.234;13.006;2023-11-18T13:29:44;2.20;;;1.60;;
25615;SDS011;13482;48.234;13.006;2023-11-18T13:32:15;1.85;;;1.35;;
25615;SDS011;13482;48.234;13.006;2023-11-18T13:34:44;1.65;;;1.48;;
25615;SDS011;13482;48.234;13.006;2023-11-18T13:37:13;2.40;;;1.80;;
25615;SDS011;13482;48.234;13.006;2023-11-18T13:39:43;2.53;;;1.55;;
25615;SDS011;13482;48.234;13.006;2023-11-18T13:42:25;2.65;;;1.85;;
25615;SDS011;13482;48.234;13.006;2023-11-18T13:45:02;2.17;;;1.67;;
25615;SDS011;13482;48.234;13.006;2023-11-18T13:47:38;3.25;;;1.98;;
25615;SDS011;13482;48.234;13.006;2023-11-18T13:50:09;2.75;;;2.20;;
25615;SDS011;13482;48.234;13.006;2023-11-18T13:52:37;2.83;;;2.35;;
25615;SDS011;13482;48.234;13.006;2023-11-18T13:55:06;3.17;;;2.17;;
25615;SDS011;13482;48.234;13.006;2023-11-18T13:57:35;2.42;;;1.95;;
25615;SDS011;13482;48.234;13.006;2023-11-18T14:00:03;2.28;;;1.75;;
25615;SDS011;13482;48.234;13.006;2023-11-18T14:02:33;3.20;;;2.40;;
25615;SDS011;13482;48.234;13.006;2023-11-18T14:05:03;3.33;;;2.67;;
25615;SDS011;13482;48.234;13.006;2023-11-18T14:07:36;3.20;;;2.60;;
25615;SDS011;13482;48.234;13.006;2023-11-18T14:10:05;3.50;;;2.25;;
25615;SDS011;13482;48.234;13.006;2023-11-18T14:12:39;3.08;;;2.30;;
25615;SDS011;13482;48.234;13.006;2023-11-18T14:15:32;2.80;;;2.22;;
25615;SDS011;13482;48.234;13.006;2023-11-18T14:18:03;2.50;;;2.05;;
25615;SDS011;13482;48.234;13.006;2023-11-18T14:20:34;2.58;;;1.98;;
25615;SDS011;13482;48.234;13.006;2023-11-18T14:23:02;2.22;;;1.80;;
25615;SDS011;13482;48.234;13.006;2023-11-18T14:25:31;2.88;;;1.95;;
25615;SDS011;13482;48.234;13.006;2023-11-18T14:28:04;2.30;;;1.65;;
25615;SDS011;13482;48.234;13.006;2023-11-18T14:30:31;2.78;;;1.52;;
25615;SDS011;13482;48.234;13.006;2023-11-18T14:32:59;2.53;;;1.70;;
25615;SDS011;13482;48.234;13.006;2023-11-18T14:35:26;2.63;;;1.92;;
25615;SDS011;13482;48.234;13.006;2023-11-18T14:37:56;3.17;;;2.30;;
25615;SDS011;13482;48.234;13.006;2023-11-18T14:40:23;3.88;;;2.63;;
25615;SDS011;13482;48.234;13.006;2023-11-18T14:42:51;3.58;;;2.63;;
25615;SDS011;13482;48.234;13.006;2023-11-18T14:45:19;3.88;;;2.95;;
25615;SDS011;13482;48.234;13.006;2023-11-18T14:47:48;3.85;;;2.83;;
25615;SDS011;13482;48.234;13.006;2023-11-18T14:50:19;4.93;;;3.53;;
25615;SDS011;13482;48.234;13.006;2023-11-18T14:52:50;4.75;;;3.13;;
25615;SDS011;13482;48.234;13.006;2023-11-18T14:55:28;3.90;;;2.50;;
25615;SDS011;13482;48.234;13.006;2023-11-18T14:57:57;3.38;;;2.45;;
25615;SDS011;13482;48.234;13.006;2023-11-18T15:00:24;3.03;;;2.35;;
25615;SDS011;13482;48.234;13.006;2023-11-18T15:02:54;3.83;;;2.20;;
25615;SDS011;13482;48.234;13.006;2023-11-18T15:05:25;3.08;;;2.17;;
25615;SDS011;13482;48.234;13.006;2023-11-18T15:07:55;2.63;;;1.88;;
25615;SDS011;13482;48.234;13.006;2023-11-18T15:10:25;2.38;;;1.75;;
25615;SDS011;13482;48.234;13.006;2023-11-18T15:12:55;2.70;;;1.92;;
25615;SDS011;13482;48.234;13.006;2023-11-18T15:15:31;2.85;;;2.35;;
25615;SDS011;13482;48.234;13.006;2023-11-18T15:18:02;2.97;;;2.47;;
25615;SDS011;13482;48.234;13.006;2023-11-18T15:20:41;2.60;;;2.15;;
25615;SDS011;13482;48.234;13.006;2023-11-18T15:23:14;2.80;;;2.40;;
25615;SDS011;13482;48.234;13.006;2023-11-18T15:25:49;3.97;;;3.13;;
25615;SDS011;13482;48.234;13.006;2023-11-18T15:28:20;3.78;;;3.28;;
25615;SDS011;13482;48.234;13.006;2023-11-18T15:30:47;3.22;;;2.67;;
25615;SDS011;13482;48.234;13.006;2023-11-18T15:33:15;3.42;;;2.53;;
25615;SDS011;13482;48.234;13.006;2023-11-18T15:35:43;3.40;;;3.10;;
25615;SDS011;13482;48.234;13.006;2023-11-18T15:38:12;3.20;;;2.70;;